Time;durP1;ratioP1;P1;durP2;ratioP2;P2;SDS_P1;SDS_P2;PMS_P1;PMS_P2;Temp;Humidity;BMP_temperature;BMP_pressure;BME280_temperature;BME280_humidity;BME280_pressure;Samples;Min_cycle;Max_cycle;Signal;HPM_P1;HPM_P2
2021/07/28 00:00:03;;;;;;;;;7.75;7.75;;;;;-143.58;100.00;62559.47;5059689;28;45493;-67
2021/07/28 00:02:29;;;;;;;;;10.25;9.25;;;;;-143.58;100.00;62559.47;5058742;28;46148;-67
2021/07/28 00:04:54;;;;;;;;;9.50;8.00;;;;;-143.58;100.00;62559.47;5059583;28;45375;-66
2021/07/28 00:07:19;;;;;;;;;7.75;6.75;;;;;-143.58;100.00;62559.47;5059162;28;45359;-67
2021/07/28 00:09:45;;;;;;;;;9.25;7.00;;;;;-143.58;100.00;62559.47;5059559;28;45291;-67
2021/07/28 00:12:10;;;;;;;;;8.00;8.00;;;;;-143.58;100.00;62559.47;5057374;28;45488;-67
2021/07/28 00:14:36;;;;;;;;;9.50;7.00;;;;;-143.58;100.00;62559.47;5059622;28;45330;-67
2021/07/28 00:17:01;;;;;;;;;6.00;6.00;;;;;-143.58;100.00;62559.47;5058908;28;45501;-67
2021/07/28 00:19:34;;;;;;;;;8.00;5.00;;;;;-143.58;100.00;62559.47;5059356;28;45249;-67
2021/07/28 00:24:43;;;;;;;;;7.00;5.50;;;;;-143.58;100.00;62559.47;5058753;28;45656;-68
2021/07/28 00:27:08;;;;;;;;;6.00;6.00;;;;;-143.58;100.00;62559.47;5059065;28;45315;-67
2021/07/28 00:29:40;;;;;;;;;3.25;3.25;;;;;-143.58;100.00;62559.47;5058893;28;45335;-67
2021/07/28 00:32:05;;;;;;;;;6.00;6.00;;;;;-143.58;100.00;62559.47;5046758;28;47130;-67
2021/07/28 00:34:30;;;;;;;;;7.00;6.00;;;;;-143.58;100.00;62559.47;5058647;28;45161;-66
2021/07/28 00:36:56;;;;;;;;;7.25;7.00;;;;;-143.58;100.00;62559.47;5049750;28;45175;-66
2021/07/28 00:39:21;;;;;;;;;6.75;6.00;;;;;-143.58;100.00;62559.47;5058158;28;45610;-66
2021/07/28 00:41:47;;;;;;;;;5.75;5.00;;;;;-143.58;100.00;62559.47;5055359;28;45404;-66
2021/07/28 00:44:13;;;;;;;;;7.75;5.25;;;;;-143.58;100.00;62559.47;5047713;28;45250;-67
2021/07/28 00:46:39;;;;;;;;;5.75;5.00;;;;;-143.58;100.00;62559.47;5048863;28;46379;-66
2021/07/28 00:49:05;;;;;;;;;6.75;6.00;;;;;-143.58;100.00;62559.47;5049812;28;45514;-66
2021/07/28 00:51:31;;;;;;;;;7.00;5.75;;;;;-143.58;100.00;62559.47;5047432;28;46339;-66
2021/07/28 00:53:57;;;;;;;;;7.25;5.75;;;;;-143.58;100.00;62559.47;5048268;28;45316;-66
2021/07/28 00:56:23;;;;;;;;;7.75;5.75;;;;;-143.58;100.00;62559.47;5049188;28;45371;-66
2021/07/28 00:58:48;;;;;;;;;7.25;5.50;;;;;-143.58;100.00;62559.47;5049949;28;45532;-66
2021/07/28 01:01:16;;;;;;;;;5.00;5.00;;;;;-143.58;100.00;62559.47;5057316;28;45295;-66
2021/07/28 01:03:42;;;;;;;;;4.50;4.50;;;;;-143.58;100.00;62559.47;5058549;28;45608;-66
2021/07/28 01:06:11;;;;;;;;;7.50;6.00;;;;;-143.58;100.00;62559.47;5058621;28;45519;-66
2021/07/28 01:08:36;;;;;;;;;6.75;5.00;;;;;-143.58;100.00;62559.47;5046599;28;45316;-65
2021/07/28 01:11:04;;;;;;;;;6.00;6.00;;;;;-143.58;100.00;62559.47;5049661;28;45269;-66
2021/07/28 01:13:31;;;;;;;;;8.00;7.00;;;;;-143.58;100.00;62559.47;5048595;28;45317;-66
2021/07/28 01:16:20;;;;;;;;;5.75;5.25;;;;;-143.58;100.00;62559.47;5048499;28;45179;-66
2021/07/28 01:18:45;;;;;;;;;6.75;6.00;;;;;-143.58;100.00;62559.47;5050149;28;45431;-66
2021/07/28 01:21:11;;;;;;;;;6.00;5.75;;;;;-143.58;100.00;62559.47;5045943;28;46299;-66
2021/07/28 01:23:38;;;;;;;;;6.00;6.00;;;;;-143.58;100.00;62559.47;5050571;28;45411;-66
2021/07/28 01:26:05;;;;;;;;;7.00;7.00;;;;;-143.58;100.00;62559.47;5050697;28;45499;-66
2021/07/28 01:28:33;;;;;;;;;6.75;5.50;;;;;-143.58;100.00;62559.47;5052985;28;45451;-66
2021/07/28 01:31:04;;;;;;;;;5.25;5.25;;;;;-143.58;100.00;62559.47;5052217;28;45391;-65
2021/07/28 01:33:32;;;;;;;;;6.00;6.00;;;;;-143.58;100.00;62559.47;5049227;28;45178;-65
2021/07/28 01:35:59;;;;;;;;;6.00;4.00;;;;;-143.58;100.00;62559.47;5032750;28;45454;-67
2021/07/28 01:38:25;;;;;;;;;7.00;6.75;;;;;-143.58;100.00;62559.47;5060852;28;45300;-65
2021/07/28 01:40:57;;;;;;;;;5.75;5.75;;;;;-143.58;100.00;62559.47;5059555;28;48113;-65
2021/07/28 01:43:23;;;;;;;;;4.75;4.25;;;;;-143.58;100.00;62559.47;5036709;28;45187;-66
2021/07/28 01:45:49;;;;;;;;;8.75;5.25;;;;;-143.58;100.00;62559.47;5060983;28;45350;-66
2021/07/28 01:48:15;;;;;;;;;5.50;4.75;;;;;-143.58;100.00;62559.47;5053551;28;45541;-65
2021/07/28 01:50:43;;;;;;;;;6.00;5.25;;;;;-143.58;100.00;62559.47;5047931;28;45620;-66
2021/07/28 01:53:09;;;;;;;;;6.00;6.00;;;;;-143.58;100.00;62559.47;5047852;28;45305;-66
2021/07/28 01:55:34;;;;;;;;;4.75;4.75;;;;;-143.58;100.00;62559.47;5061409;28;45269;-66
2021/07/28 01:58:00;;;;;;;;;8.00;6.00;;;;;-143.58;100.00;62559.47;5060376;28;45197;-65
2021/07/28 02:00:25;;;;;;;;;7.00;6.00;;;;;-143.58;100.00;62559.47;5061234;28;45930;-66
2021/07/28 02:02:51;;;;;;;;;5.00;5.00;;;;;-143.58;100.00;62559.47;5061020;28;45224;-65
2021/07/28 02:05:16;;;;;;;;;4.00;4.00;;;;;-143.58;100.00;62559.47;5061521;28;45472;-66
2021/07/28 02:07:42;;;;;;;;;5.25;5.00;;;;;-143.58;100.00;62559.47;5060953;28;45488;-66
2021/07/28 02:10:08;;;;;;;;;3.50;3.00;;;;;-143.58;100.00;62559.47;5061100;28;46297;-66
2021/07/28 02:12:33;;;;;;;;;5.50;4.00;;;;;-143.58;100.00;62559.47;5059836;28;45426;-66
2021/07/28 02:14:58;;;;;;;;;8.00;6.00;;;;;-143.58;100.00;62559.47;5061448;28;45397;-66
2021/07/28 02:17:24;;;;;;;;;5.00;5.00;;;;;-143.58;100.00;62559.47;5060501;28;45415;-66
2021/07/28 02:19:49;;;;;;;;;6.00;4.00;;;;;-143.58;100.00;62559.47;5061132;28;45323;-66
2021/07/28 02:22:15;;;;;;;;;5.00;4.00;;;;;-143.58;100.00;62559.47;5060316;28;45404;-66
2021/07/28 02:24:41;;;;;;;;;5.50;4.50;;;;;-143.58;100.00;62559.47;5061270;28;45347;-66
2021/07/28 02:27:07;;;;;;;;;4.00;4.00;;;;;-143.58;100.00;62559.47;5059835;28;45491;-66
2021/07/28 02:29:34;;;;;;;;;5.75;5.00;;;;;-143.58;100.00;62559.47;5060573;28;45331;-66
2021/07/28 02:32:01;;;;;;;;;7.00;6.00;;;;;-143.58;100.00;62559.47;5060628;28;45264;-66
2021/07/28 02:34:26;;;;;;;;;7.50;4.00;;;;;-143.58;100.00;62559.47;5059688;28;45265;-66
2021/07/28 02:36:52;;;;;;;;;7.00;4.00;;;;;-143.58;100.00;62559.47;5048208;28;45164;-65
2021/07/28 02:39:17;;;;;;;;;4.00;4.00;;;;;-143.58;100.00;62559.47;5059650;28;45458;-65
2021/07/28 02:41:42;;;;;;;;;5.00;5.00;;;;;-143.58;100.00;62559.47;5060432;28;45288;-66
2021/07/28 02:44:08;;;;;;;;;5.00;4.00;;;;;-143.58;100.00;62559.47;5060224;28;45242;-66
2021/07/28 02:46:33;;;;;;;;;7.00;4.00;;;;;-143.58;100.00;62559.47;5059093;28;45515;-65
2021/07/28 02:48:58;;;;;;;;;7.25;6.00;;;;;-143.58;100.00;62559.47;5053874;28;46321;-65
2021/07/28 02:51:24;;;;;;;;;3.50;2.25;;;;;-143.58;100.00;62559.47;5046515;28;45309;-66
2021/07/28 02:53:49;;;;;;;;;6.00;4.00;;;;;-143.58;100.00;62559.47;5060737;28;45450;-66
2021/07/28 02:56:14;;;;;;;;;4.00;4.00;;;;;-143.58;100.00;62559.47;5059492;28;45327;-66
2021/07/28 02:58:40;;;;;;;;;4.25;4.25;;;;;-143.58;100.00;62559.47;5059961;28;46096;-66
2021/07/28 03:01:05;;;;;;;;;3.00;3.00;;;;;-143.58;100.00;62559.47;5059705;28;45430;-66
2021/07/28 03:03:30;;;;;;;;;2.25;2.25;;;;;-143.58;100.00;62559.47;5060659;28;45241;-66
2021/07/28 03:05:56;;;;;;;;;3.75;3.75;;;;;-143.58;100.00;62559.47;5059622;28;45261;-66
2021/07/28 03:08:22;;;;;;;;;5.00;4.00;;;;;-143.58;100.00;62559.47;5060349;28;45456;-66
2021/07/28 03:10:47;;;;;;;;;5.00;5.00;;;;;-143.58;100.00;62559.47;5059445;28;45442;-65
2021/07/28 03:13:12;;;;;;;;;4.75;4.75;;;;;-143.58;100.00;62559.47;5060123;28;45330;-65
2021/07/28 03:15:38;;;;;;;;;4.75;3.75;;;;;-143.58;100.00;62559.47;5059596;28;45253;-65
2021/07/28 03:18:03;;;;;;;;;5.25;3.50;;;;;-143.58;100.00;62559.47;5060075;28;45270;-65
2021/07/28 03:20:28;;;;;;;;;6.00;4.00;;;;;-143.58;100.00;62559.47;5059573;28;45471;-65
2021/07/28 03:22:54;;;;;;;;;3.25;3.25;;;;;-143.58;100.00;62559.47;5048567;28;45223;-65
2021/07/28 03:25:19;;;;;;;;;5.50;3.75;;;;;-143.58;100.00;62559.47;5039831;28;45257;-65
2021/07/28 03:27:45;;;;;;;;;4.50;4.00;;;;;-143.58;100.00;62559.47;5059639;28;46168;-65
2021/07/28 03:30:10;;;;;;;;;5.00;4.00;;;;;-143.58;100.00;62559.47;5059107;28;45327;-65
2021/07/28 03:32:36;;;;;;;;;7.75;4.00;;;;;-143.58;100.00;62559.47;5060217;28;45313;-65
2021/07/28 03:35:01;;;;;;;;;5.00;4.00;;;;;-143.58;100.00;62559.47;5057741;28;45651;-65
2021/07/28 03:37:27;;;;;;;;;2.50;2.00;;;;;-143.58;100.00;62559.47;5052115;28;46280;-65
2021/07/28 03:40:01;;;;;;;;;6.00;5.00;;;;;-143.58;100.00;62559.47;5059559;28;45430;-65
2021/07/28 03:42:31;;;;;;;;;6.00;3.50;;;;;-143.58;100.00;62559.47;5059223;28;45283;-65
2021/07/28 03:45:00;;;;;;;;;6.75;6.00;;;;;-143.58;100.00;62559.47;5047160;28;45483;-65
2021/07/28 03:47:26;;;;;;;;;5.75;3.00;;;;;-143.58;100.00;62559.47;5051333;28;46469;-65
2021/07/28 03:49:52;;;;;;;;;4.00;3.00;;;;;-143.58;100.00;62559.47;5052929;28;45225;-67
2021/07/28 03:52:17;;;;;;;;;4.50;3.50;;;;;-143.58;100.00;62559.47;5052809;28;45214;-67
2021/07/28 03:54:43;;;;;;;;;7.00;5.75;;;;;-143.58;100.00;62559.47;5058885;28;45228;-66
2021/07/28 03:57:10;;;;;;;;;9.75;8.25;;;;;-143.58;100.00;62559.47;5058616;28;45565;-66
2021/07/28 03:59:35;;;;;;;;;6.00;3.00;;;;;-143.58;100.00;62559.47;5052395;28;45288;-66
2021/07/28 04:02:01;;;;;;;;;5.00;5.00;;;;;-143.58;100.00;62559.47;5052977;28;45369;-66
2021/07/28 04:04:26;;;;;;;;;4.00;3.50;;;;;-143.58;100.00;62559.47;5058944;28;45611;-66
2021/07/28 04:06:51;;;;;;;;;3.75;2.75;;;;;-143.58;100.00;62559.47;5046874;28;45635;-66
2021/07/28 04:09:16;;;;;;;;;3.25;3.25;;;;;-143.58;100.00;62559.47;5058707;28;45347;-66
2021/07/28 04:11:42;;;;;;;;;5.50;4.50;;;;;-143.58;100.00;62559.47;5059115;28;45339;-66
2021/07/28 04:14:07;;;;;;;;;4.25;2.25;;;;;-143.58;100.00;62559.47;5058630;28;45307;-66
2021/07/28 04:16:33;;;;;;;;;8.75;2.75;;;;;-143.58;100.00;62559.47;5059075;28;46276;-66
2021/07/28 04:18:58;;;;;;;;;4.75;3.00;;;;;-143.58;100.00;62559.47;5059065;28;45578;-66
2021/07/28 04:21:23;;;;;;;;;4.25;4.00;;;;;-143.58;100.00;62559.47;5059429;28;45416;-66
2021/07/28 04:23:49;;;;;;;;;5.00;4.00;;;;;-143.58;100.00;62559.47;5058016;28;45447;-66
2021/07/28 04:26:14;;;;;;;;;4.25;4.25;;;;;-143.58;100.00;62559.47;5045803;28;46213;-66
2021/07/28 04:28:39;;;;;;;;;4.75;4.00;;;;;-143.58;100.00;62559.47;5058351;28;45153;-67
2021/07/28 04:31:05;;;;;;;;;5.00;3.75;;;;;-143.58;100.00;62559.47;5059055;28;45387;-67
2021/07/28 04:33:30;;;;;;;;;4.75;2.50;;;;;-143.58;100.00;62559.47;5058342;28;45264;-67
2021/07/28 04:35:55;;;;;;;;;3.25;2.00;;;;;-143.58;100.00;62559.47;5050179;28;45303;-67
2021/07/28 04:38:21;;;;;;;;;4.00;3.25;;;;;-143.58;100.00;62559.47;5058236;28;45326;-68
2021/07/28 04:40:46;;;;;;;;;4.75;3.00;;;;;-143.58;100.00;62559.47;5046087;28;45316;-67
2021/07/28 04:43:11;;;;;;;;;3.75;2.75;;;;;-143.58;100.00;62559.47;5058150;28;45205;-74
2021/07/28 04:45:39;;;;;;;;;5.00;3.75;;;;;-143.58;100.00;62559.47;5058920;28;46046;-74
2021/07/28 04:48:04;;;;;;;;;5.00;3.00;;;;;-143.58;100.00;62559.47;5051612;28;45331;-74
2021/07/28 04:50:30;;;;;;;;;4.00;2.75;;;;;-143.58;100.00;62559.47;5047007;28;45392;-73
2021/07/28 04:52:55;;;;;;;;;3.75;3.75;;;;;-143.58;100.00;62559.47;5055983;28;45288;-70
2021/07/28 04:55:21;;;;;;;;;6.00;3.50;;;;;-143.58;100.00;62559.47;5058388;28;46264;-71
2021/07/28 04:57:46;;;;;;;;;4.25;4.25;;;;;-143.58;100.00;62559.47;5058731;28;46613;-71
2021/07/28 05:00:11;;;;;;;;;5.00;2.00;;;;;-143.58;100.00;62559.47;5062442;28;45303;-70
2021/07/28 05:02:37;;;;;;;;;4.75;3.00;;;;;-143.58;100.00;62559.47;5060712;28;45387;-71
2021/07/28 05:05:04;;;;;;;;;2.75;2.75;;;;;-143.58;100.00;62559.47;5062088;28;46367;-71
2021/07/28 05:07:29;;;;;;;;;4.50;3.75;;;;;-143.58;100.00;62559.47;5061531;28;45559;-71
2021/07/28 05:09:54;;;;;;;;;8.00;3.25;;;;;-143.58;100.00;62559.47;5060835;28;45383;-71
2021/07/28 05:12:20;;;;;;;;;4.75;4.75;;;;;-143.58;100.00;62559.47;5058207;28;45263;-70
2021/07/28 05:14:45;;;;;;;;;6.00;3.25;;;;;-143.58;100.00;62559.47;5059615;28;45380;-70
2021/07/28 05:17:10;;;;;;;;;5.50;3.25;;;;;-143.58;100.00;62559.47;5058567;28;45523;-71
2021/07/28 05:19:36;;;;;;;;;6.75;4.00;;;;;-143.58;100.00;62559.47;5059765;28;45355;-70
2021/07/28 05:22:01;;;;;;;;;5.50;4.00;;;;;-143.58;100.00;62559.47;5058595;28;45578;-70
2021/07/28 05:24:26;;;;;;;;;8.50;7.50;;;;;-143.58;100.00;62559.47;5060201;28;45370;-71
2021/07/28 05:26:52;;;;;;;;;6.25;5.50;;;;;-143.58;100.00;62559.47;5060712;28;45458;-71
2021/07/28 05:29:17;;;;;;;;;9.00;7.00;;;;;-143.58;100.00;62559.47;5061686;28;45235;-71
2021/07/28 05:31:42;;;;;;;;;3.50;3.50;;;;;-143.58;100.00;62559.47;5060954;28;45157;-71
2021/07/28 05:34:08;;;;;;;;;5.25;4.25;;;;;-143.58;100.00;62559.47;5061766;28;45325;-72
2021/07/28 05:36:33;;;;;;;;;4.00;4.00;;;;;-143.58;100.00;62559.47;5051669;28;45334;-71
2021/07/28 05:38:58;;;;;;;;;4.00;4.00;;;;;-143.58;100.00;62559.47;5061619;28;45456;-71
2021/07/28 05:41:25;;;;;;;;;6.75;4.50;;;;;-143.58;100.00;62559.47;5047165;28;45336;-71
2021/07/28 05:43:50;;;;;;;;;4.50;3.00;;;;;-143.58;100.00;62559.47;5049563;28;47239;-71
2021/07/28 05:46:15;;;;;;;;;5.00;4.00;;;;;-143.58;100.00;62559.47;5059209;28;45384;-70
2021/07/28 05:48:41;;;;;;;;;8.25;5.25;;;;;-143.58;100.00;62559.47;5053941;28;45361;-71
2021/07/28 05:51:06;;;;;;;;;3.75;3.75;;;;;-143.58;100.00;62559.47;5046362;28;45400;-71
2021/07/28 05:53:32;;;;;;;;;5.00;4.00;;;;;-143.58;100.00;62559.47;5061148;28;46292;-71
2021/07/28 05:55:57;;;;;;;;;7.00;5.00;;;;;-143.58;100.00;62559.47;5059816;28;45396;-71
2021/07/28 05:58:22;;;;;;;;;5.00;5.00;;;;;-143.58;100.00;62559.47;5060969;28;45415;-72
2021/07/28 06:00:48;;;;;;;;;5.50;5.50;;;;;-143.58;100.00;62559.47;5060311;28;45541;-71
2021/07/28 06:03:14;;;;;;;;;4.00;3.75;;;;;-143.58;100.00;62559.47;5060802;28;45435;-71
2021/07/28 06:05:39;;;;;;;;;4.75;4.75;;;;;-143.58;100.00;62559.47;5060266;28;45486;-71
2021/07/28 06:08:05;;;;;;;;;7.00;3.50;;;;;-143.58;100.00;62559.47;5060994;28;45222;-70
2021/07/28 06:10:30;;;;;;;;;7.25;4.00;;;;;-143.58;100.00;62559.47;5059011;28;45215;-71
2021/07/28 06:12:56;;;;;;;;;2.25;2.00;;;;;-143.58;100.00;62559.47;5060755;28;45236;-73
2021/07/28 06:15:21;;;;;;;;;4.50;3.50;;;;;-143.58;100.00;62559.47;5057658;28;45226;-71
2021/07/28 06:17:46;;;;;;;;;8.75;6.50;;;;;-143.58;100.00;62559.47;5051127;28;45161;-71
2021/07/28 06:20:12;;;;;;;;;6.25;4.50;;;;;-143.58;100.00;62559.47;5060384;28;45213;-71
2021/07/28 06:22:38;;;;;;;;;5.00;5.00;;;;;-143.58;100.00;62559.47;5060780;28;45223;-71
2021/07/28 06:25:04;;;;;;;;;4.25;4.00;;;;;-143.58;100.00;62559.47;5060046;28;45253;-72
2021/07/28 06:27:29;;;;;;;;;3.75;3.75;;;;;-143.58;100.00;62559.47;5060673;28;45376;-71
2021/07/28 06:29:54;;;;;;;;;9.00;5.50;;;;;-143.58;100.00;62559.47;5059882;28;45257;-71
2021/07/28 06:32:20;;;;;;;;;5.25;4.00;;;;;-143.58;100.00;62559.47;5060757;28;45429;-71
2021/07/28 06:34:46;;;;;;;;;8.00;4.75;;;;;-143.58;100.00;62559.47;5060024;28;45705;-70
2021/07/28 06:37:11;;;;;;;;;4.50;4.00;;;;;-143.58;100.00;62559.47;5051478;28;45298;-71
2021/07/28 06:39:36;;;;;;;;;5.25;5.25;;;;;-143.58;100.00;62559.47;5047131;28;45307;-71
2021/07/28 06:42:02;;;;;;;;;5.00;5.00;;;;;-143.58;100.00;62559.47;5059916;28;45682;-71
2021/07/28 06:44:27;;;;;;;;;4.75;4.00;;;;;-143.58;100.00;62559.47;5059676;28;45337;-70
2021/07/28 06:46:53;;;;;;;;;5.00;4.75;;;;;-143.58;100.00;62559.47;5056296;28;45362;-70
2021/07/28 06:49:18;;;;;;;;;8.25;6.00;;;;;-143.58;100.00;62559.47;5054039;28;46525;-71
2021/07/28 06:51:43;;;;;;;;;6.75;5.00;;;;;-143.58;100.00;62559.47;5048536;28;46272;-70
2021/07/28 06:54:09;;;;;;;;;6.25;4.50;;;;;-143.58;100.00;62559.47;5059687;28;45212;-71
2021/07/28 06:56:34;;;;;;;;;6.75;5.50;;;;;-143.58;100.00;62559.47;5060385;28;45360;-71
2021/07/28 06:58:59;;;;;;;;;7.75;6.50;;;;;-143.58;100.00;62559.47;5059067;28;45471;-72
2021/07/28 07:01:25;;;;;;;;;3.00;3.00;;;;;-143.58;100.00;62559.47;5059886;28;45289;-71
2021/07/28 07:03:50;;;;;;;;;6.25;5.00;;;;;-143.58;100.00;62559.47;5059552;28;45225;-71
2021/07/28 07:06:15;;;;;;;;;4.00;2.50;;;;;-143.58;100.00;62559.47;5060373;28;45229;-71
2021/07/28 07:08:41;;;;;;;;;4.00;3.00;;;;;-143.58;100.00;62559.47;5059411;28;45513;-71
2021/07/28 07:11:06;;;;;;;;;6.25;5.50;;;;;-143.58;100.00;62559.47;5041514;28;45325;-71
2021/07/28 07:13:33;;;;;;;;;2.00;2.00;;;;;-143.58;100.00;62559.47;5059256;28;45170;-71
2021/07/28 07:15:59;;;;;;;;;5.75;5.75;;;;;-143.58;100.00;62559.47;5060254;28;45399;-71
2021/07/28 07:18:24;;;;;;;;;7.75;7.00;;;;;-143.58;100.00;62559.47;5059497;28;45545;-71
2021/07/28 07:20:49;;;;;;;;;7.25;4.25;;;;;-143.58;100.00;62559.47;5059772;28;46022;-71
2021/07/28 07:23:15;;;;;;;;;5.50;3.00;;;;;-143.58;100.00;62559.47;5059146;28;45280;-71
2021/07/28 07:25:40;;;;;;;;;6.75;3.75;;;;;-143.58;100.00;62559.47;5059822;28;45396;-71
2021/07/28 07:28:05;;;;;;;;;3.75;3.75;;;;;-143.58;100.00;62559.47;5058149;28;45546;-70
2021/07/28 07:30:31;;;;;;;;;4.75;3.75;;;;;-143.58;100.00;62559.47;5047158;28;45416;-71
2021/07/28 07:35:40;;;;;;;;;8.00;5.25;;;;;-143.58;100.00;62559.47;5053188;28;45362;-70
2021/07/28 07:38:06;;;;;;;;;5.50;4.00;;;;;-143.58;100.00;62559.47;5055993;28;45618;-70
2021/07/28 07:40:31;;;;;;;;;6.75;5.75;;;;;-143.58;100.00;62559.47;5058826;28;46093;-70
2021/07/28 07:42:56;;;;;;;;;4.50;4.50;;;;;-143.58;100.00;62559.47;5058249;28;46106;-71
2021/07/28 07:45:22;;;;;;;;;6.00;5.75;;;;;-143.58;100.00;62559.47;5059749;28;45476;-71
2021/07/28 07:47:47;;;;;;;;;11.00;7.50;;;;;-143.58;100.00;62559.47;5050778;28;45338;-71
2021/07/28 07:50:13;;;;;;;;;8.75;5.50;;;;;-143.58;100.00;62559.47;5049900;28;45327;-71
2021/07/28 07:52:38;;;;;;;;;2.50;2.50;;;;;-143.58;100.00;62559.47;5054439;28;45320;-72
2021/07/28 07:55:04;;;;;;;;;6.00;4.75;;;;;-143.58;100.00;62559.47;5059758;28;45443;-71
2021/07/28 07:57:30;;;;;;;;;9.25;5.25;;;;;-143.58;100.00;62559.47;5057902;28;45236;-71
2021/07/28 07:59:55;;;;;;;;;4.00;3.25;;;;;-143.58;100.00;62559.47;5059446;28;45935;-71
2021/07/28 08:02:20;;;;;;;;;8.75;5.00;;;;;-143.58;100.00;62559.47;5058687;28;45314;-71
2021/07/28 08:04:46;;;;;;;;;5.00;3.75;;;;;-143.58;100.00;62559.47;5059422;28;45480;-70
2021/07/28 08:07:11;;;;;;;;;4.00;4.00;;;;;-143.58;100.00;62559.47;5058201;28;45466;-72
2021/07/28 08:09:36;;;;;;;;;9.25;6.00;;;;;-143.58;100.00;62559.47;5058973;28;49224;-70
2021/07/28 08:12:02;;;;;;;;;4.25;3.25;;;;;-143.58;100.00;62559.47;5058148;28;45299;-71
2021/07/28 08:14:27;;;;;;;;;4.75;4.00;;;;;-143.58;100.00;62559.47;5059313;28;45463;-70
2021/07/28 08:16:52;;;;;;;;;5.00;4.00;;;;;-143.58;100.00;62559.47;5058284;28;45232;-71
2021/07/28 08:19:18;;;;;;;;;4.75;4.00;;;;;-143.58;100.00;62559.47;5059118;28;46294;-70
2021/07/28 08:21:44;;;;;;;;;6.00;5.25;;;;;-143.58;100.00;62559.47;5058371;28;45380;-70
2021/07/28 08:24:10;;;;;;;;;4.50;4.50;;;;;-143.58;100.00;62559.47;5059536;28;45333;-71
2021/07/28 08:26:35;;;;;;;;;3.00;3.00;;;;;-143.58;100.00;62559.47;5057969;28;45279;-70
2021/07/28 08:29:00;;;;;;;;;4.00;3.25;;;;;-143.58;100.00;62559.47;5058630;28;45401;-71
2021/07/28 08:31:26;;;;;;;;;2.75;2.75;;;;;-143.58;100.00;62559.47;5058235;28;47227;-71
2021/07/28 08:33:51;;;;;;;;;3.75;3.75;;;;;-143.58;100.00;62559.47;5062329;28;45306;-70
2021/07/28 08:36:16;;;;;;;;;4.00;3.50;;;;;-143.58;100.00;62559.47;5052364;28;45470;-71
2021/07/28 08:38:41;;;;;;;;;4.25;3.00;;;;;-143.58;100.00;62559.47;5062854;28;46045;-73
2021/07/28 08:41:07;;;;;;;;;5.00;3.25;;;;;-143.58;100.00;62559.47;5060446;28;45432;-71
2021/07/28 08:43:34;;;;;;;;;4.00;4.00;;;;;-143.58;100.00;62559.47;5062377;28;45295;-71
2021/07/28 08:46:05;;;;;;;;;5.75;5.00;;;;;-143.58;100.00;62559.47;5061619;28;45318;-72
2021/07/28 08:48:31;;;;;;;;;6.00;4.75;;;;;-143.58;100.00;62559.47;5054242;28;45429;-70
2021/07/28 08:51:01;;;;;;;;;4.00;4.00;;;;;-143.58;100.00;62559.47;5047312;28;45304;-72
2021/07/28 08:53:27;;;;;;;;;5.25;4.25;;;;;-143.58;100.00;62559.47;5062618;28;45313;-71
2021/07/28 08:55:58;;;;;;;;;1.00;1.00;;;;;-143.58;100.00;62559.47;5061222;28;45279;-71
2021/07/28 08:58:26;;;;;;;;;3.25;3.25;;;;;-143.58;100.00;62559.47;5061751;28;45540;-71
2021/07/28 09:00:52;;;;;;;;;4.00;4.00;;;;;-143.58;100.00;62559.47;5061556;28;45308;-71
2021/07/28 09:03:18;;;;;;;;;3.75;3.00;;;;;-143.58;100.00;62559.47;5062473;28;45267;-70
2021/07/28 09:05:46;;;;;;;;;2.00;2.00;;;;;-143.58;100.00;62559.47;5061392;28;45158;-71
2021/07/28 09:08:34;;;;;;;;;7.50;6.00;;;;;-143.58;100.00;62559.47;5062113;28;46406;-70
2021/07/28 09:11:03;;;;;;;;;2.50;1.50;;;;;-143.58;100.00;62559.47;5061070;28;45224;-71
2021/07/28 09:13:33;;;;;;;;;3.00;2.00;;;;;-143.58;100.00;62559.47;5061582;28;45504;-71
2021/07/28 09:16:10;;;;;;;;;4.25;4.00;;;;;-143.58;100.00;62559.47;5062051;28;45478;-71
2021/07/28 09:18:36;;;;;;;;;3.75;3.00;;;;;-143.58;100.00;62559.47;5061076;28;45272;-70
2021/07/28 09:21:24;;;;;;;;;7.50;4.50;;;;;-143.58;100.00;62559.47;5052748;28;45672;-71
2021/07/28 09:23:51;;;;;;;;;3.00;3.00;;;;;-143.58;100.00;62559.47;5060519;28;45317;-71
2021/07/28 09:26:51;;;;;;;;;4.75;3.00;;;;;-143.58;100.00;62559.47;5061539;28;45340;-70
2021/07/28 09:29:27;;;;;;;;;6.75;4.25;;;;;-143.58;100.00;62559.47;5051830;28;46717;-70
2021/07/28 09:32:00;;;;;;;;;1.50;1.00;;;;;-143.58;100.00;62559.47;5060998;28;45209;-70
2021/07/28 09:34:25;;;;;;;;;3.00;3.00;;;;;-143.58;100.00;62559.47;5061902;28;45432;-71
2021/07/28 09:36:51;;;;;;;;;3.50;3.50;;;;;-143.58;100.00;62559.47;5051424;28;45412;-71
2021/07/28 09:39:37;;;;;;;;;11.00;4.75;;;;;-143.58;100.00;62559.47;5060556;28;45712;-72
2021/07/28 09:42:18;;;;;;;;;4.75;4.00;;;;;-143.58;100.00;62559.47;5050547;28;45246;-72
2021/07/28 09:44:52;;;;;;;;;4.00;4.00;;;;;-143.58;100.00;62559.47;5056824;28;45280;-71
2021/07/28 09:47:21;;;;;;;;;3.00;2.00;;;;;-143.58;100.00;62559.47;5046631;28;45321;-71
2021/07/28 09:50:06;;;;;;;;;3.00;3.00;;;;;-143.58;100.00;62559.47;5054737;28;46216;-71
2021/07/28 09:52:35;;;;;;;;;2.00;2.00;;;;;-143.58;100.00;62559.47;5055518;28;45838;-71
2021/07/28 09:55:21;;;;;;;;;2.25;2.00;;;;;-143.58;100.00;62559.47;5060097;28;45478;-72
2021/07/28 09:57:49;;;;;;;;;2.00;2.00;;;;;-143.58;100.00;62559.47;5059938;28;45526;-71
2021/07/28 10:00:15;;;;;;;;;2.00;2.00;;;;;-143.58;100.00;62559.47;5061217;28;45353;-70
2021/07/28 10:02:43;;;;;;;;;5.00;2.25;;;;;-143.58;100.00;62559.47;5060157;28;45653;-72
2021/07/28 10:05:10;;;;;;;;;3.00;3.00;;;;;-143.58;100.00;62559.47;5061247;28;45320;-71
2021/07/28 10:07:36;;;;;;;;;4.50;3.50;;;;;-143.58;100.00;62559.47;5060128;28;45261;-71
2021/07/28 10:10:05;;;;;;;;;3.00;2.00;;;;;-143.58;100.00;62559.47;5060935;28;45435;-72
2021/07/28 10:12:35;;;;;;;;;3.75;3.00;;;;;-143.58;100.00;62559.47;5059442;28;45228;-72
2021/07/28 10:15:02;;;;;;;;;5.00;5.00;;;;;-143.58;100.00;62559.47;5060170;28;45457;-71
2021/07/28 10:17:29;;;;;;;;;4.75;3.00;;;;;-143.58;100.00;62559.47;5061094;28;45459;-72
2021/07/28 10:19:55;;;;;;;;;4.75;3.25;;;;;-143.58;100.00;62559.47;5059916;28;47210;-72
2021/07/28 10:22:20;;;;;;;;;2.00;2.00;;;;;-143.58;100.00;62559.47;5060946;28;45388;-71
2021/07/28 10:24:47;;;;;;;;;3.25;2.00;;;;;-143.58;100.00;62559.47;5060128;28;45154;-71
2021/07/28 10:27:15;;;;;;;;;2.25;2.00;;;;;-143.58;100.00;62559.47;5060565;28;45220;-71
2021/07/28 10:29:42;;;;;;;;;3.25;2.50;;;;;-143.58;100.00;62559.47;5059821;28;47082;-71
2021/07/28 10:32:08;;;;;;;;;3.75;3.75;;;;;-143.58;100.00;62559.47;5060610;28;45344;-71
2021/07/28 10:34:37;;;;;;;;;3.00;3.00;;;;;-143.58;100.00;62559.47;5059930;28;45268;-71
2021/07/28 10:37:04;;;;;;;;;3.75;3.25;;;;;-143.58;100.00;62559.47;5051600;28;45155;-72
2021/07/28 10:39:36;;;;;;;;;3.25;2.25;;;;;-143.58;100.00;62559.47;5057142;28;45338;-71
2021/07/28 10:42:14;;;;;;;;;6.50;6.25;;;;;-143.58;100.00;62559.47;5050189;28;45295;-71
2021/07/28 10:45:02;;;;;;;;;3.25;2.00;;;;;-143.58;100.00;62559.47;5059805;28;45312;-71
2021/07/28 10:47:38;;;;;;;;;2.00;2.00;;;;;-143.58;100.00;62559.47;5052084;28;45261;-71
2021/07/28 10:50:24;;;;;;;;;4.00;2.75;;;;;-143.58;100.00;62559.47;5051592;28;45414;-71
2021/07/28 10:52:51;;;;;;;;;6.75;5.00;;;;;-143.58;100.00;62559.47;5045624;28;45233;-70
2021/07/28 10:55:18;;;;;;;;;2.25;2.25;;;;;-143.58;100.00;62559.47;5059598;28;45308;-71
2021/07/28 10:57:52;;;;;;;;;3.50;3.50;;;;;-143.58;100.00;62559.47;5058833;28;45490;-71
2021/07/28 11:00:39;;;;;;;;;3.25;3.25;;;;;-143.58;100.00;62559.47;5041915;28;47475;-70
2021/07/28 11:03:07;;;;;;;;;3.25;3.25;;;;;-143.58;100.00;62559.47;5059917;28;45684;-71
2021/07/28 11:05:41;;;;;;;;;10.00;6.00;;;;;-143.58;100.00;62559.47;5059598;28;45469;-71
2021/07/28 11:08:14;;;;;;;;;3.50;3.50;;;;;-143.58;100.00;62559.47;5060288;28;45339;-72
2021/07/28 11:10:58;;;;;;;;;6.00;3.00;;;;;-143.58;100.00;62559.47;5058887;28;45442;-71
2021/07/28 11:13:26;;;;;;;;;2.50;2.50;;;;;-143.58;100.00;62559.47;5059575;28;45635;-72